createdAt,value
2022-08-30T00:01:14.238Z,100.00
2022-08-30T00:03:46.582Z,100.00
2022-08-30T00:06:15.648Z,100.00
2022-08-30T00:08:43.514Z,100.00
2022-08-30T00:11:13.038Z,100.00
2022-08-30T00:13:41.804Z,100.00
2022-08-30T00:16:08.770Z,100.00
2022-08-30T00:18:36.861Z,100.00
2022-08-30T00:21:04.863Z,100.00
2022-08-30T00:23:31.852Z,100.00
2022-08-30T00:25:58.993Z,100.00
2022-08-30T00:28:25.585Z,100.00
2022-08-30T00:30:52.277Z,100.00
2022-08-30T00:33:18.947Z,100.00
2022-08-30T00:35:45.517Z,100.00
2022-08-30T00:38:13.068Z,100.00
2022-08-30T00:40:42.029Z,100.00
2022-08-30T00:43:13.953Z,100.00
2022-08-30T00:45:41.064Z,100.00
2022-08-30T00:48:07.663Z,100.00
2022-08-30T00:50:37.909Z,100.00
2022-08-30T00:53:09.041Z,100.00
2022-08-30T00:55:37.303Z,100.00
2022-08-30T00:58:09.926Z,100.00
2022-08-30T01:00:36.495Z,100.00
2022-08-30T01:03:03.246Z,100.00
2022-08-30T01:05:30.175Z,100.00
2022-08-30T01:07:56.702Z,100.00
2022-08-30T01:10:23.309Z,100.00
2022-08-30T01:12:50.096Z,100.00
2022-08-30T01:15:16.797Z,100.00
2022-08-30T01:17:45.153Z,100.00
2022-08-30T01:20:17.544Z,100.00
2022-08-30T01:22:50.016Z,100.00
2022-08-30T01:25:24.608Z,100.00
2022-08-30T01:27:56.752Z,100.00
2022-08-30T01:30:23.992Z,100.00
2022-08-30T01:32:56.297Z,100.00
2022-08-30T01:35:22.952Z,100.00
2022-08-30T01:37:49.808Z,100.00
2022-08-30T01:40:19.698Z,100.00
2022-08-30T01:42:46.375Z,100.00
2022-08-30T01:45:13.521Z,100.00
2022-08-30T01:47:40.599Z,100.00
2022-08-30T01:50:08.201Z,100.00
2022-08-30T01:52:35.134Z,100.00
2022-08-30T01:55:02.936Z,100.00
2022-08-30T01:57:29.490Z,100.00
2022-08-30T01:59:55.930Z,100.00
2022-08-30T02:02:26.765Z,100.00
2022-08-30T02:04:54.390Z,100.00
2022-08-30T02:07:22.352Z,100.00
2022-08-30T02:09:48.853Z,100.00
2022-08-30T02:12:15.383Z,100.00
2022-08-30T02:14:41.827Z,100.00
2022-08-30T02:17:10.235Z,100.00
2022-08-30T02:19:36.592Z,100.00
2022-08-30T02:22:03.176Z,100.00
2022-08-30T02:24:29.690Z,100.00
2022-08-30T02:26:56.208Z,100.00
2022-08-30T02:29:24.101Z,100.00
2022-08-30T02:31:51.135Z,100.00
2022-08-30T02:34:18.816Z,100.00
2022-08-30T02:36:45.418Z,100.00
2022-08-30T02:39:13.688Z,100.00
2022-08-30T02:41:41.586Z,100.00
2022-08-30T02:44:09.895Z,100.00
2022-08-30T02:46:36.633Z,100.00
2022-08-30T02:49:23.760Z,100.00
2022-08-30T02:51:51.083Z,100.00
2022-08-30T02:54:20.025Z,100.00
2022-08-30T02:56:50.223Z,100.00
2022-08-30T02:59:18.452Z,100.00
2022-08-30T03:01:45.258Z,100.00
2022-08-30T03:04:11.850Z,100.00
2022-08-30T03:06:38.748Z,100.00
2022-08-30T03:09:05.611Z,100.00
2022-08-30T03:11:32.232Z,100.00
2022-08-30T03:13:59.372Z,100.00
2022-08-30T03:16:25.856Z,100.00
2022-08-30T03:18:52.346Z,100.00
2022-08-30T03:21:18.940Z,100.00
2022-08-30T03:23:45.565Z,100.00
2022-08-30T03:26:14.669Z,100.00
2022-08-30T03:28:44.035Z,100.00
2022-08-30T03:31:11.495Z,100.00
2022-08-30T03:33:40.321Z,100.00
2022-08-30T03:36:08.856Z,100.00
2022-08-30T03:38:35.872Z,100.00
2022-08-30T03:41:02.419Z,100.00
2022-08-30T03:43:29.530Z,100.00
2022-08-30T03:45:56.940Z,100.00
2022-08-30T03:48:23.471Z,100.00
2022-08-30T03:50:49.941Z,100.00
2022-08-30T03:53:16.564Z,100.00
2022-08-30T03:55:43.176Z,100.00
2022-08-30T03:58:09.691Z,100.00
2022-08-30T04:00:36.812Z,100.00
2022-08-30T04:03:03.453Z,100.00
2022-08-30T04:05:30.183Z,100.00
2022-08-30T04:07:56.814Z,100.00
2022-08-30T04:10:24.268Z,100.00
2022-08-30T04:12:50.911Z,100.00
2022-08-30T04:15:18.974Z,100.00
2022-08-30T04:17:46.360Z,100.00
2022-08-30T04:20:13.094Z,100.00
2022-08-30T04:22:39.691Z,100.00
2022-08-30T04:25:07.178Z,100.00
2022-08-30T04:27:33.623Z,100.00
2022-08-30T04:30:01.140Z,100.00
2022-08-30T04:32:27.779Z,100.00
2022-08-30T04:34:59.604Z,100.00
2022-08-30T04:37:26.727Z,100.00
2022-08-30T04:39:57.716Z,100.00
2022-08-30T04:42:24.731Z,100.00
2022-08-30T04:44:51.471Z,100.00
2022-08-30T04:47:18.541Z,100.00
2022-08-30T04:49:45.099Z,100.00
2022-08-30T04:52:11.612Z,100.00
2022-08-30T04:54:38.447Z,100.00
2022-08-30T04:57:06.516Z,100.00
2022-08-30T04:59:33.437Z,100.00
2022-08-30T05:02:00.573Z,100.00
2022-08-30T05:04:27.266Z,100.00
2022-08-30T05:06:53.864Z,100.00
2022-08-30T05:09:21.882Z,100.00
2022-08-30T05:11:48.799Z,100.00
2022-08-30T05:14:15.396Z,100.00
2022-08-30T05:16:42.217Z,100.00
2022-08-30T05:19:09.020Z,100.00
2022-08-30T05:21:35.603Z,100.00
2022-08-30T05:24:02.370Z,100.00
2022-08-30T05:26:32.025Z,100.00
2022-08-30T05:28:58.549Z,100.00
2022-08-30T05:31:28.148Z,100.00
2022-08-30T05:33:56.000Z,100.00
2022-08-30T05:36:25.156Z,100.00
2022-08-30T05:38:51.735Z,100.00
2022-08-30T05:41:20.360Z,100.00
2022-08-30T05:43:46.911Z,100.00
2022-08-30T05:46:19.278Z,100.00
2022-08-30T05:48:46.957Z,100.00
2022-08-30T05:51:17.531Z,100.00
2022-08-30T05:53:44.947Z,100.00
2022-08-30T05:56:13.798Z,100.00
2022-08-30T05:58:40.497Z,100.00
2022-08-30T06:01:07.518Z,100.00
2022-08-30T06:03:34.110Z,100.00
2022-08-30T06:06:00.977Z,100.00
2022-08-30T06:08:27.766Z,100.00
2022-08-30T06:10:54.343Z,100.00
2022-08-30T06:13:20.818Z,100.00
2022-08-30T06:15:47.337Z,100.00
2022-08-30T06:18:14.629Z,100.00
2022-08-30T06:20:42.678Z,100.00
2022-08-30T06:23:10.324Z,100.00
2022-08-30T06:25:41.958Z,100.00
2022-08-30T06:28:09.617Z,100.00
2022-08-30T06:30:36.270Z,100.00
2022-08-30T06:33:03.101Z,100.00
2022-08-30T06:35:32.600Z,100.00
2022-08-30T06:38:01.992Z,100.00
2022-08-30T06:40:29.138Z,100.00
2022-08-30T06:42:55.959Z,100.00
2022-08-30T06:45:22.616Z,100.00
2022-08-30T06:47:49.312Z,100.00
2022-08-30T06:50:17.237Z,100.00
2022-08-30T06:52:45.518Z,100.00
2022-08-30T06:55:16.372Z,100.00
2022-08-30T06:57:43.012Z,100.00
2022-08-30T07:00:12.226Z,100.00
2022-08-30T07:02:39.754Z,100.00
2022-08-30T07:05:07.928Z,100.00
2022-08-30T07:07:35.314Z,100.00
2022-08-30T07:10:06.782Z,100.00
2022-08-30T07:12:33.316Z,100.00
2022-08-30T07:14:59.794Z,100.00
2022-08-30T07:17:44.855Z,100.00
2022-08-30T07:20:11.396Z,100.00
2022-08-30T07:22:37.889Z,100.00
2022-08-30T07:25:04.850Z,100.00
2022-08-30T07:27:31.715Z,100.00
2022-08-30T07:29:59.295Z,100.00
2022-08-30T07:32:25.880Z,100.00
2022-08-30T07:34:52.321Z,100.00
2022-08-30T07:37:18.860Z,100.00
2022-08-30T07:39:47.930Z,100.00
2022-08-30T07:42:14.841Z,100.00
2022-08-30T07:44:41.289Z,100.00
2022-08-30T07:47:07.810Z,100.00
2022-08-30T07:49:34.261Z,100.00
2022-08-30T07:52:00.723Z,100.00
2022-08-30T07:54:27.203Z,100.00
2022-08-30T07:56:55.755Z,100.00
2022-08-30T07:59:23.685Z,100.00
2022-08-30T08:01:50.241Z,100.00
2022-08-30T08:04:19.383Z,100.00
2022-08-30T08:06:46.043Z,100.00
2022-08-30T08:09:13.212Z,100.00
2022-08-30T08:11:41.408Z,100.00
2022-08-30T08:14:08.540Z,100.00
2022-08-30T08:16:36.442Z,100.00
2022-08-30T08:19:04.500Z,100.00
2022-08-30T08:21:30.936Z,100.00
2022-08-30T08:23:57.451Z,100.00
2022-08-30T08:26:24.004Z,100.00
2022-08-30T08:28:50.515Z,100.00
2022-08-30T08:31:23.568Z,100.00
2022-08-30T08:33:50.620Z,100.00
2022-08-30T08:36:18.493Z,100.00
2022-08-30T08:38:45.470Z,100.00
2022-08-30T08:41:15.057Z,100.00
2022-08-30T08:43:42.324Z,100.00
2022-08-30T08:46:22.166Z,100.00
2022-08-30T08:48:59.867Z,100.00
2022-08-30T08:51:50.624Z,100.00
2022-08-30T08:54:36.673Z,100.00
2022-08-30T08:57:03.578Z,100.00
2022-08-30T08:59:30.420Z,100.00
2022-08-30T09:02:09.615Z,100.00
2022-08-30T09:04:39.335Z,100.00
2022-08-30T09:07:21.833Z,100.00
2022-08-30T09:09:48.481Z,100.00
2022-08-30T09:12:15.150Z,100.00
2022-08-30T09:14:55.385Z,100.00
2022-08-30T09:17:23.443Z,100.00
2022-08-30T09:19:52.927Z,100.00
2022-08-30T09:22:33.637Z,100.00
2022-08-30T09:25:02.389Z,100.00
2022-08-30T09:27:38.308Z,100.00
2022-08-30T09:30:14.384Z,100.00
2022-08-30T09:32:50.402Z,100.00
2022-08-30T09:35:23.750Z,100.00
2022-08-30T09:38:04.323Z,100.00
2022-08-30T09:40:42.898Z,100.00
2022-08-30T09:43:28.484Z,100.00
2022-08-30T09:46:01.057Z,100.00
2022-08-30T09:48:42.387Z,100.00
2022-08-30T09:51:11.991Z,100.00
2022-08-30T09:53:50.981Z,100.00
2022-08-30T09:56:41.967Z,100.00
2022-08-30T09:59:39.700Z,100.00
2022-08-30T10:02:22.019Z,100.00
2022-08-30T10:05:00.464Z,100.00
2022-08-30T10:07:53.627Z,100.00
2022-08-30T10:10:34.688Z,100.00
2022-08-30T10:13:42.933Z,100.00
2022-08-30T10:16:15.950Z,100.00
2022-08-30T10:19:00.772Z,100.00
2022-08-30T10:21:35.759Z,100.00
2022-08-30T10:24:19.619Z,100.00
2022-08-30T10:26:57.638Z,100.00
2022-08-30T10:29:31.793Z,100.00
2022-08-30T10:32:06.610Z,100.00
2022-08-30T10:34:42.513Z,100.00
2022-08-30T10:37:16.847Z,100.00
2022-08-30T10:39:47.786Z,100.00
2022-08-30T10:42:22.715Z,100.00
2022-08-30T10:45:01.470Z,100.00
2022-08-30T10:47:42.756Z,100.00
2022-08-30T10:50:17.259Z,100.00
2022-08-30T10:52:54.597Z,100.00
2022-08-30T10:55:35.562Z,100.00
2022-08-30T10:58:06.039Z,100.00
2022-08-30T11:01:13.117Z,100.00
2022-08-30T11:04:07.003Z,100.00
2022-08-30T11:06:54.008Z,100.00
2022-08-30T11:09:42.011Z,100.00
2022-08-30T11:12:36.088Z,100.00
2022-08-30T11:15:17.050Z,100.00
2022-08-30T11:17:54.826Z,100.00
2022-08-30T11:20:36.139Z,100.00
2022-08-30T11:23:25.922Z,100.00
2022-08-30T11:26:20.230Z,100.00
2022-08-30T11:28:47.026Z,100.00
2022-08-30T11:31:23.529Z,100.00
2022-08-30T11:33:59.117Z,100.00
2022-08-30T11:36:46.137Z,100.00
2022-08-30T11:39:55.747Z,100.00
2022-08-30T11:42:30.611Z,100.00
2022-08-30T11:45:22.026Z,100.00
2022-08-30T11:48:00.805Z,100.00
2022-08-30T11:50:49.747Z,100.00
2022-08-30T11:53:24.331Z,100.00
2022-08-30T11:56:21.223Z,100.00
2022-08-30T11:58:59.165Z,100.00
2022-08-30T12:01:42.331Z,100.00
2022-08-30T12:04:26.794Z,100.00
2022-08-30T12:07:04.063Z,100.00
2022-08-30T12:09:30.617Z,100.00
2022-08-30T12:11:58.596Z,100.00
2022-08-30T12:14:42.516Z,100.00
2022-08-30T12:17:39.803Z,100.00
2022-08-30T12:20:17.643Z,100.00
2022-08-30T12:22:45.425Z,100.00
2022-08-30T12:25:21.506Z,100.00
2022-08-30T12:27:48.727Z,100.00
2022-08-30T12:30:27.036Z,100.00
2022-08-30T12:32:53.991Z,100.00
2022-08-30T12:35:25.697Z,100.00
2022-08-30T12:38:02.601Z,100.00
2022-08-30T12:40:31.621Z,100.00
2022-08-30T12:43:02.691Z,100.00
2022-08-30T12:45:44.195Z,100.00
2022-08-30T12:48:17.277Z,100.00
2022-08-30T12:50:55.100Z,100.00
2022-08-30T12:53:27.831Z,100.00
2022-08-30T12:56:00.537Z,100.00
2022-08-30T12:58:54.022Z,100.00
2022-08-30T13:01:31.335Z,100.00
2022-08-30T13:04:26.567Z,100.00
2022-08-30T13:07:00.071Z,100.00
2022-08-30T13:09:32.620Z,100.00
2022-08-30T13:12:01.943Z,100.00
2022-08-30T13:14:53.564Z,100.00
2022-08-30T13:17:28.236Z,100.00
2022-08-30T13:20:05.728Z,100.00
2022-08-30T13:22:35.307Z,100.00
2022-08-30T13:25:02.619Z,100.00
2022-08-30T13:27:31.021Z,100.00
2022-08-30T13:29:58.325Z,100.00
2022-08-30T13:32:24.907Z,100.00
2022-08-30T13:34:51.627Z,100.00
2022-08-30T13:40:11.655Z,100.00
2022-08-30T13:42:40.377Z,100.00
2022-08-30T13:45:40.827Z,100.00
2022-08-30T13:47:54.680Z,100.00
2022-08-30T13:50:21.511Z,100.00
2022-08-30T13:52:48.999Z,100.00
2022-08-30T13:55:15.828Z,100.00
2022-08-30T13:57:58.279Z,100.00
2022-08-30T14:00:26.222Z,100.00
2022-08-30T14:02:56.113Z,100.00
2022-08-30T14:11:05.315Z,100.00
2022-08-30T14:13:32.960Z,100.00
2022-08-30T14:18:47.999Z,100.00
2022-08-30T14:21:15.933Z,98.84
2022-08-30T14:23:42.636Z,96.77
2022-08-30T14:26:19.050Z,98.71
2022-08-30T14:28:45.980Z,97.96
2022-08-30T14:31:18.213Z,100.00
2022-08-30T14:33:46.716Z,100.00
2022-08-30T14:36:15.672Z,100.00
2022-08-30T14:38:44.828Z,100.00
2022-08-30T14:41:11.501Z,100.00
2022-08-30T14:43:40.659Z,100.00
2022-08-30T14:46:09.136Z,100.00
2022-08-30T14:48:38.021Z,100.00
2022-08-30T14:51:21.907Z,100.00
2022-08-30T14:53:52.957Z,100.00
2022-08-30T14:56:22.157Z,100.00
2022-08-30T14:58:53.153Z,100.00
2022-08-30T15:01:22.435Z,100.00
2022-08-30T15:03:49.095Z,100.00
2022-08-30T15:06:18.224Z,100.00
2022-08-30T15:08:47.624Z,100.00
2022-08-30T15:11:17.503Z,100.00
2022-08-30T15:13:46.831Z,99.64
2022-08-30T15:16:19.439Z,98.18
2022-08-30T15:18:46.641Z,97.10
2022-08-30T15:21:13.480Z,96.89
2022-08-30T15:23:40.495Z,96.54
2022-08-30T15:26:09.433Z,98.68
2022-08-30T15:28:36.486Z,99.60
2022-08-30T15:31:06.289Z,100.00
2022-08-30T15:33:35.513Z,100.00
2022-08-30T15:36:04.805Z,100.00
2022-08-30T15:38:32.002Z,100.00
2022-08-30T15:41:03.359Z,100.00
2022-08-30T15:43:30.344Z,99.85
2022-08-30T15:46:18.576Z,98.29
2022-08-30T15:48:46.461Z,98.83
2022-08-30T15:51:13.933Z,98.40
2022-08-30T15:53:40.892Z,96.39
2022-08-30T15:56:07.505Z,96.69
2022-08-30T15:58:35.198Z,97.06
2022-08-30T16:01:02.265Z,99.16
2022-08-30T16:03:29.335Z,98.78
2022-08-30T16:05:55.894Z,98.44
2022-08-30T16:08:22.929Z,99.83
2022-08-30T16:10:52.023Z,99.50
2022-08-30T16:13:18.821Z,99.72
2022-08-30T16:15:46.781Z,100.00
2022-08-30T16:18:14.739Z,99.85
2022-08-30T16:20:42.606Z,100.00
2022-08-30T16:23:11.055Z,99.67
2022-08-30T16:25:39.887Z,99.17
2022-08-30T16:28:09.559Z,98.25
2022-08-30T16:30:36.936Z,99.12
2022-08-30T16:33:03.725Z,98.83
2022-08-30T16:35:30.259Z,97.24
2022-08-30T16:37:56.722Z,98.65
2022-08-30T16:40:23.739Z,99.20
2022-08-30T16:42:50.686Z,99.36
2022-08-30T16:45:17.990Z,97.92
2022-08-30T16:47:45.841Z,96.66
2022-08-30T16:50:12.813Z,97.38
2022-08-30T16:52:44.032Z,97.20
2022-08-30T16:55:10.972Z,96.54
2022-08-30T16:57:38.610Z,97.36
2022-08-30T17:00:13.180Z,97.06
2022-08-30T17:02:40.535Z,97.00
2022-08-30T17:05:14.681Z,97.00
2022-08-30T17:07:41.923Z,96.16
2022-08-30T17:10:08.920Z,97.97
2022-08-30T17:12:35.539Z,97.53
2022-08-30T17:15:05.713Z,97.34
2022-08-30T17:17:32.702Z,97.23
2022-08-30T17:19:59.295Z,99.02
2022-08-30T17:22:26.092Z,98.89
2022-08-30T17:24:53.035Z,99.66
2022-08-30T17:27:19.797Z,98.83
2022-08-30T17:29:46.368Z,99.25
2022-08-30T17:32:12.979Z,99.30
2022-08-30T17:34:39.911Z,99.94
2022-08-30T17:37:06.475Z,100.00
2022-08-30T17:39:33.893Z,100.00
2022-08-30T17:42:00.889Z,100.00
2022-08-30T17:44:30.898Z,100.00
2022-08-30T17:46:59.727Z,100.00
2022-08-30T17:49:27.326Z,100.00
2022-08-30T17:51:56.984Z,100.00
2022-08-30T17:54:25.830Z,100.00
2022-08-30T17:56:53.195Z,100.00
2022-08-30T17:59:25.032Z,100.00
2022-08-30T18:01:53.657Z,100.00
2022-08-30T18:04:21.711Z,100.00
2022-08-30T18:06:51.898Z,100.00
2022-08-30T18:09:18.416Z,100.00
2022-08-30T18:11:44.943Z,100.00
2022-08-30T18:14:12.701Z,100.00
2022-08-30T18:16:53.731Z,100.00
2022-08-30T18:19:21.827Z,100.00
2022-08-30T18:21:48.395Z,100.00
2022-08-30T18:24:15.984Z,100.00
2022-08-30T18:26:44.948Z,100.00
2022-08-30T18:29:11.533Z,100.00
2022-08-30T18:31:38.430Z,100.00
2022-08-30T18:34:06.934Z,100.00
2022-08-30T18:36:39.114Z,100.00
2022-08-30T18:39:06.469Z,100.00
2022-08-30T18:41:33.188Z,100.00
2022-08-30T18:44:23.840Z,100.00
2022-08-30T18:47:31.868Z,100.00
2022-08-30T18:49:35.441Z,100.00
2022-08-30T18:52:06.548Z,100.00
2022-08-30T18:54:36.641Z,100.00
2022-08-30T18:57:03.248Z,100.00
2022-08-30T18:59:31.425Z,100.00
2022-08-30T19:02:04.199Z,100.00
2022-08-30T19:04:35.380Z,100.00
2022-08-30T19:07:03.798Z,100.00
2022-08-30T19:09:30.498Z,100.00
2022-08-30T19:11:57.471Z,100.00
2022-08-30T19:14:27.927Z,100.00
2022-08-30T19:16:56.601Z,100.00
2022-08-30T19:19:23.703Z,100.00
2022-08-30T19:21:50.217Z,100.00
2022-08-30T19:24:17.849Z,100.00
2022-08-30T19:26:46.867Z,100.00
2022-08-30T19:29:14.649Z,100.00
2022-08-30T19:31:42.006Z,100.00
2022-08-30T19:34:08.808Z,100.00
2022-08-30T19:36:35.290Z,100.00
2022-08-30T19:39:02.313Z,100.00
2022-08-30T19:41:29.588Z,100.00
2022-08-30T19:43:57.250Z,100.00
2022-08-30T19:46:27.660Z,100.00
2022-08-30T19:48:54.217Z,100.00
2022-08-30T19:51:20.815Z,100.00
2022-08-30T19:53:48.436Z,100.00
2022-08-30T19:56:15.056Z,100.00
2022-08-30T19:58:41.739Z,100.00
2022-08-30T20:01:12.100Z,100.00
2022-08-30T20:03:47.561Z,100.00
2022-08-30T20:06:19.870Z,100.00
2022-08-30T20:08:47.325Z,100.00
2022-08-30T20:11:20.108Z,100.00
2022-08-30T20:13:48.154Z,100.00
2022-08-30T20:16:15.797Z,100.00
2022-08-30T20:18:44.887Z,100.00
2022-08-30T20:21:14.427Z,100.00
2022-08-30T20:23:42.999Z,100.00
2022-08-30T20:26:11.553Z,100.00
2022-08-30T20:28:38.838Z,100.00
2022-08-30T20:31:07.195Z,100.00
2022-08-30T20:33:36.522Z,100.00
2022-08-30T20:36:09.733Z,100.00
2022-08-30T20:38:36.313Z,100.00
2022-08-30T20:41:10.567Z,100.00
2022-08-30T20:43:37.825Z,100.00
2022-08-30T20:46:13.539Z,100.00
2022-08-30T20:48:41.585Z,100.00
2022-08-30T20:51:10.392Z,100.00
2022-08-30T20:53:37.396Z,100.00
2022-08-30T20:56:07.742Z,100.00
2022-08-30T20:58:34.359Z,100.00
2022-08-30T21:01:01.106Z,100.00
2022-08-30T21:03:32.784Z,100.00
2022-08-30T21:05:59.490Z,100.00
2022-08-30T21:08:26.262Z,100.00
2022-08-30T21:10:53.408Z,100.00
2022-08-30T21:13:20.383Z,100.00
2022-08-30T21:15:51.302Z,100.00
2022-08-30T21:18:18.186Z,100.00
2022-08-30T21:20:44.853Z,100.00
2022-08-30T21:23:11.407Z,100.00
2022-08-30T21:25:39.579Z,100.00
2022-08-30T21:28:06.942Z,100.00
2022-08-30T21:30:34.688Z,100.00
2022-08-30T21:33:03.876Z,100.00
2022-08-30T21:35:49.412Z,100.00
2022-08-30T21:38:16.692Z,100.00
2022-08-30T21:40:43.704Z,100.00
2022-08-30T21:43:10.753Z,100.00
2022-08-30T21:45:39.117Z,100.00
2022-08-30T21:48:05.686Z,100.00
2022-08-30T21:50:32.233Z,100.00
2022-08-30T21:52:58.720Z,100.00
2022-08-30T21:55:25.463Z,100.00
2022-08-30T21:57:54.252Z,100.00
2022-08-30T22:00:21.006Z,100.00
2022-08-30T22:02:49.254Z,100.00
2022-08-30T22:05:20.015Z,100.00
2022-08-30T22:07:46.493Z,100.00
2022-08-30T22:10:13.040Z,100.00
2022-08-30T22:12:39.630Z,100.00
2022-08-30T22:15:09.035Z,100.00
2022-08-30T22:17:35.513Z,100.00
2022-08-30T22:20:02.200Z,100.00
2022-08-30T22:22:28.991Z,100.00
2022-08-30T22:24:55.498Z,100.00
2022-08-30T22:27:22.003Z,100.00
2022-08-30T22:29:48.467Z,100.00
2022-08-30T22:32:15.079Z,100.00
2022-08-30T22:34:44.990Z,100.00
2022-08-30T22:37:11.535Z,100.00
2022-08-30T22:39:38.075Z,100.00
2022-08-30T22:42:05.192Z,100.00
2022-08-30T22:44:31.994Z,100.00
2022-08-30T22:46:58.447Z,100.00
2022-08-30T22:49:25.780Z,100.00
2022-08-30T22:51:52.278Z,100.00
2022-08-30T22:54:18.823Z,100.00
2022-08-30T22:56:45.305Z,100.00
2022-08-30T22:59:11.815Z,100.00
2022-08-30T23:01:43.017Z,100.00
2022-08-30T23:04:10.647Z,100.00
2022-08-30T23:06:37.374Z,100.00
2022-08-30T23:09:05.676Z,100.00
2022-08-30T23:11:33.441Z,100.00
2022-08-30T23:14:00.937Z,100.00
2022-08-30T23:16:27.438Z,100.00
2022-08-30T23:18:54.028Z,100.00
2022-08-30T23:21:27.683Z,100.00
2022-08-30T23:24:13.675Z,100.00
2022-08-30T23:26:59.719Z,100.00
2022-08-30T23:29:45.975Z,100.00
2022-08-30T23:32:31.581Z,100.00
2022-08-30T23:35:16.517Z,100.00
2022-08-30T23:38:01.374Z,100.00
2022-08-30T23:40:46.581Z,100.00
2022-08-30T23:43:32.258Z,100.00
2022-08-30T23:46:19.441Z,100.00
2022-08-30T23:49:06.270Z,100.00
2022-08-30T23:51:51.869Z,100.00
2022-08-30T23:54:36.979Z,100.00
2022-08-30T23:57:23.658Z,100.00
